Time;durP1;ratioP1;P1;durP2;ratioP2;P2;SDS_P1;SDS_P2;PMS_P1;PMS_P2;Temp;Humidity;BMP_temperature;BMP_pressure;BME280_temperature;BME280_humidity;BME280_pressure;Samples;Min_cycle;Max_cycle;Signal;HPM_P1;HPM_P2
2023/12/24 00:01:06;;;;;;;2.05;0.65;;;17.60;84.40;;;;;;4914860;27;45502;-52
2023/12/24 00:03:59;;;;;;;0.73;0.47;;;17.60;84.60;;;;;;4927689;27;45450;-52
2023/12/24 00:06:25;;;;;;;3.15;0.60;;;17.60;84.00;;;;;;4889614;27;44993;-52
2023/12/24 00:09:11;;;;;;;0.90;0.40;;;17.60;83.70;;;;;;4928289;27;45368;-52
2023/12/24 00:11:38;;;;;;;0.50;0.38;;;17.60;83.40;;;;;;4903072;27;45329;-52
2023/12/24 00:14:21;;;;;;;1.02;0.60;;;17.60;83.60;;;;;;4908665;27;46956;-52
2023/12/24 00:16:48;;;;;;;0.55;0.40;;;17.60;83.50;;;;;;4888479;27;45322;-52
2023/12/24 00:19:22;;;;;;;0.70;0.52;;;17.50;83.70;;;;;;4915647;27;45342;-53
2023/12/24 00:22:00;;;;;;;1.42;0.50;;;17.50;83.90;;;;;;4908459;27;45407;-52
2023/12/24 00:24:37;;;;;;;1.38;0.52;;;17.50;83.40;;;;;;4882602;27;47054;-52
2023/12/24 00:27:26;;;;;;;0.75;0.25;;;17.50;83.80;;;;;;4909824;27;44862;-52
2023/12/24 00:32:50;;;;;;;0.88;0.30;;;17.50;83.90;;;;;;4885233;27;45591;-52
2023/12/24 00:35:18;;;;;;;1.92;0.57;;;17.50;84.00;;;;;;4913380;27;45889;-52
2023/12/24 00:37:46;;;;;;;0.93;0.40;;;17.50;84.90;;;;;;4890313;27;45464;-53
2023/12/24 00:40:26;;;;;;;1.77;0.60;;;17.50;84.00;;;;;;4902757;27;45422;-52
2023/12/24 00:42:56;;;;;;;0.68;0.22;;;17.50;83.80;;;;;;4914301;27;45473;-52
2023/12/24 00:45:38;;;;;;;1.85;0.50;;;17.60;84.00;;;;;;4920936;27;46402;-52
2023/12/24 00:48:17;;;;;;;0.80;0.47;;;17.60;83.70;;;;;;4911661;27;45311;-52
2023/12/24 00:51:04;;;;;;;3.17;0.55;;;17.60;84.00;;;;;;4914636;27;45335;-52
2023/12/24 00:53:33;;;;;;;1.80;0.40;;;17.60;83.60;;;;;;4908297;27;45617;-53
2023/12/24 00:56:00;;;;;;;1.08;0.50;;;17.60;84.00;;;;;;4899177;27;47390;-52
2023/12/24 00:58:43;;;;;;;3.00;0.40;;;17.60;84.20;;;;;;4914728;27;45941;-52
2023/12/24 01:01:20;;;;;;;1.95;0.50;;;17.60;84.00;;;;;;4899720;27;45694;-52
2023/12/24 01:03:48;;;;;;;0.60;0.28;;;17.60;84.00;;;;;;4903755;27;45395;-52
2023/12/24 01:06:29;;;;;;;0.45;0.30;;;17.60;84.10;;;;;;4919463;27;45505;-53
2023/12/24 01:08:56;;;;;;;1.27;0.60;;;17.60;84.20;;;;;;4900845;27;45541;-52
2023/12/24 01:11:23;;;;;;;1.00;0.40;;;17.60;84.00;;;;;;4909621;27;45203;-52
2023/12/24 01:14:04;;;;;;;0.73;0.40;;;17.60;84.00;;;;;;4912861;27;45558;-52
2023/12/24 01:17:09;;;;;;;1.83;0.50;;;17.60;84.00;;;;;;4933739;27;46433;-52
2023/12/24 01:19:39;;;;;;;0.90;0.40;;;17.60;84.10;;;;;;4898555;27;45535;-52
2023/12/24 01:22:14;;;;;;;0.40;0.40;;;17.50;83.60;;;;;;4924362;27;45347;-52
2023/12/24 01:24:40;;;;;;;0.50;0.32;;;17.50;84.00;;;;;;4896360;27;45458;-52
2023/12/24 01:27:27;;;;;;;1.23;0.35;;;17.50;83.80;;;;;;4920563;27;46358;-52
2023/12/24 01:29:55;;;;;;;1.42;0.30;;;17.50;84.20;;;;;;4917865;27;45348;-52
2023/12/24 01:32:22;;;;;;;0.90;0.38;;;17.50;84.00;;;;;;4902684;27;45424;-52
2023/12/24 01:34:52;;;;;;;1.48;0.40;;;17.50;83.80;;;;;;4914823;27;45239;-52
2023/12/24 01:37:28;;;;;;;0.55;0.20;;;17.50;83.90;;;;;;4908055;27;45521;-52
2023/12/24 01:40:21;;;;;;;1.65;0.45;;;17.50;83.40;;;;;;4915163;27;45525;-52
2023/12/24 01:42:58;;;;;;;1.55;0.32;;;17.50;83.80;;;;;;4932267;27;44912;-52
2023/12/24 01:45:49;;;;;;;1.15;0.40;;;17.50;83.70;;;;;;4922551;27;45800;-52
2023/12/24 01:48:16;;;;;;;1.10;0.30;;;17.50;83.90;;;;;;4900301;27;45388;-52
2023/12/24 01:50:54;;;;;;;0.55;0.30;;;17.50;83.50;;;;;;4895013;27;45306;-52
2023/12/24 01:53:42;;;;;;;0.50;0.30;;;17.50;83.60;;;;;;4941188;27;45316;-52
2023/12/24 01:56:09;;;;;;;1.05;0.30;;;17.50;83.20;;;;;;4912964;27;45728;-52
2023/12/24 01:58:48;;;;;;;1.02;0.50;;;17.50;83.60;;;;;;4904883;27;46217;-52
2023/12/24 02:01:29;;;;;;;0.43;0.40;;;17.50;83.30;;;;;;4908200;27;45161;-52
2023/12/24 02:03:59;;;;;;;2.35;0.85;;;17.50;83.00;;;;;;4903502;27;45728;-52
2023/12/24 02:06:41;;;;;;;0.80;0.40;;;17.50;83.20;;;;;;4911095;27;45449;-52
2023/12/24 02:09:39;;;;;;;0.25;0.20;;;17.50;83.70;;;;;;4900121;27;46617;-52
2023/12/24 02:12:06;;;;;;;2.33;0.60;;;17.50;83.70;;;;;;4912503;27;45477;-52
2023/12/24 02:14:53;;;;;;;1.08;0.40;;;17.50;83.60;;;;;;4920127;27;45512;-52
2023/12/24 02:17:52;;;;;;;0.40;0.28;;;17.50;83.90;;;;;;4924603;27;46089;-52
2023/12/24 02:20:51;;;;;;;1.35;0.50;;;17.50;83.60;;;;;;4919372;27;46260;-52
2023/12/24 02:23:23;;;;;;;0.63;0.25;;;17.50;83.70;;;;;;4902289;27;45853;-52
2023/12/24 02:26:30;;;;;;;0.17;0.13;;;17.50;83.90;;;;;;4921572;27;45547;-52
2023/12/24 02:29:28;;;;;;;1.30;0.30;;;17.40;84.00;;;;;;4901003;27;45673;-52
2023/12/24 02:32:02;;;;;;;0.30;0.20;;;17.40;84.00;;;;;;4916102;27;47241;-52
2023/12/24 02:34:54;;;;;;;0.52;0.20;;;17.50;84.20;;;;;;4911492;27;45393;-52
2023/12/24 02:37:41;;;;;;;0.32;0.30;;;17.40;84.00;;;;;;4915592;27;46170;-52
2023/12/24 02:43:35;;;;;;;0.32;0.20;;;17.40;84.30;;;;;;4895738;27;45927;-52
2023/12/24 02:46:12;;;;;;;0.40;0.30;;;17.40;84.30;;;;;;4927989;27;45472;-52
2023/12/24 02:48:59;;;;;;;0.95;0.20;;;17.40;84.30;;;;;;4919180;27;45290;-52
2023/12/24 02:51:41;;;;;;;0.10;0.10;;;17.40;84.40;;;;;;4935448;27;45330;-52
2023/12/24 02:54:14;;;;;;;1.02;0.10;;;17.40;84.50;;;;;;4893885;27;45607;-52
2023/12/24 02:56:47;;;;;;;0.52;0.17;;;17.40;84.40;;;;;;4897757;27;45704;-52
2023/12/24 02:59:17;;;;;;;0.52;0.30;;;17.40;84.50;;;;;;4909093;27;45269;-52
2023/12/24 03:01:48;;;;;;;0.47;0.20;;;17.50;84.60;;;;;;4902764;27;45388;-52
2023/12/24 03:04:25;;;;;;;0.85;0.30;;;17.50;84.60;;;;;;4892900;27;45901;-52
2023/12/24 03:06:52;;;;;;;0.25;0.10;;;17.50;84.50;;;;;;4915649;27;45444;-52
2023/12/24 03:09:19;;;;;;;0.57;0.10;;;17.50;84.70;;;;;;4910635;27;45283;-52
2023/12/24 03:11:49;;;;;;;0.45;0.20;;;17.50;84.60;;;;;;4914629;27;45336;-52
2023/12/24 03:14:34;;;;;;;0.47;0.25;;;17.50;84.50;;;;;;4915262;27;45472;-52
2023/12/24 03:17:17;;;;;;;0.05;0.05;;;17.50;84.30;;;;;;4909292;27;45453;-52
2023/12/24 03:20:01;;;;;;;0.43;0.20;;;17.50;84.70;;;;;;4912961;27;45332;-52
2023/12/24 03:22:46;;;;;;;0.15;0.03;;;17.50;84.70;;;;;;4918478;27;45513;-52
2023/12/24 03:25:36;;;;;;;0.00;0.00;;;17.50;84.60;;;;;;4924898;27;47124;-52
2023/12/24 03:28:17;;;;;;;1.00;0.20;;;17.50;84.60;;;;;;4893829;27;45166;-52
2023/12/24 03:31:02;;;;;;;0.38;0.28;;;17.50;84.60;;;;;;4914101;27;45547;-52
2023/12/24 03:33:42;;;;;;;0.15;0.10;;;17.50;84.80;;;;;;4894977;27;45290;-52
2023/12/24 03:36:19;;;;;;;0.10;0.10;;;17.50;85.00;;;;;;4899104;27;45845;-52
2023/12/24 03:41:39;;;;;;;0.20;0.10;;;17.50;85.10;;;;;;4906495;27;45252;-52
2023/12/24 03:44:19;;;;;;;0.10;0.10;;;17.50;85.40;;;;;;4906680;27;45618;-52
2023/12/24 03:47:08;;;;;;;0.20;0.13;;;17.50;85.40;;;;;;4914554;27;47323;-52
2023/12/24 03:50:01;;;;;;;0.10;0.10;;;17.50;85.40;;;;;;4910634;27;45474;-52
2023/12/24 03:52:29;;;;;;;0.60;0.20;;;17.50;85.50;;;;;;4905184;27;45459;-52
2023/12/24 03:55:01;;;;;;;0.10;0.10;;;17.50;85.30;;;;;;4907462;27;45484;-52
2023/12/24 03:57:29;;;;;;;0.22;0.15;;;17.50;85.50;;;;;;4894293;27;46424;-52
2023/12/24 04:00:35;;;;;;;0.13;0.10;;;17.40;85.20;;;;;;4923694;27;45506;-52
2023/12/24 04:03:06;;;;;;;0.25;0.10;;;17.50;85.40;;;;;;4903747;27;45714;-52
2023/12/24 04:05:33;;;;;;;0.13;0.00;;;17.50;85.20;;;;;;4899607;27;45411;-52
2023/12/24 04:08:01;;;;;;;0.05;0.00;;;17.50;85.20;;;;;;4900433;27;46040;-52
2023/12/24 04:10:50;;;;;;;0.38;0.10;;;17.50;85.30;;;;;;4903997;27;45214;-52
2023/12/24 04:13:43;;;;;;;0.28;0.15;;;17.50;85.10;;;;;;4907334;27;45431;-52
2023/12/24 04:16:23;;;;;;;0.20;0.10;;;17.50;84.80;;;;;;4911527;27;45645;-52
2023/12/24 04:19:13;;;;;;;0.32;0.10;;;17.50;84.80;;;;;;4935452;27;45806;-52
2023/12/24 04:22:11;;;;;;;0.57;0.10;;;17.50;84.90;;;;;;4908755;27;45453;-52
2023/12/24 04:25:03;;;;;;;0.43;0.20;;;17.50;85.00;;;;;;4932371;27;45396;-52
2023/12/24 04:27:30;;;;;;;0.85;0.20;;;17.50;84.70;;;;;;4926314;27;45193;-52
2023/12/24 04:30:07;;;;;;;0.05;0.05;;;17.50;84.80;;;;;;4909942;27;45849;-52
2023/12/24 04:32:36;;;;;;;0.00;0.00;;;17.50;84.80;;;;;;4896391;27;45314;-52
2023/12/24 04:35:17;;;;;;;1.25;0.35;;;17.50;84.80;;;;;;4917007;27;45476;-52
2023/12/24 04:38:01;;;;;;;0.40;0.20;;;17.50;84.90;;;;;;4896979;27;45736;-52
2023/12/24 04:40:45;;;;;;;0.75;0.22;;;17.50;85.20;;;;;;4912076;27;45787;-52
2023/12/24 04:43:23;;;;;;;0.00;0.00;;;17.50;85.30;;;;;;4917892;27;45391;-52
2023/12/24 04:46:04;;;;;;;0.30;0.10;;;17.50;85.20;;;;;;4900183;27;45474;-52
2023/12/24 04:48:59;;;;;;;0.38;0.10;;;17.50;85.40;;;;;;4978796;27;45461;-52
2023/12/24 04:51:38;;;;;;;0.20;0.13;;;17.50;85.40;;;;;;4895891;27;47208;-52
2023/12/24 04:54:08;;;;;;;0.20;0.03;;;17.50;85.20;;;;;;4918054;27;45465;-52
2023/12/24 04:56:35;;;;;;;0.10;0.10;;;17.50;85.20;;;;;;4909278;27;45425;-52
2023/12/24 04:59:01;;;;;;;0.10;0.10;;;17.50;85.30;;;;;;4924161;27;45770;-52
2023/12/24 05:02:03;;;;;;;0.10;0.10;;;17.50;85.40;;;;;;4911667;27;45537;-52
2023/12/24 05:04:43;;;;;;;0.00;0.00;;;17.50;85.40;;;;;;4907248;27;45473;-52
2023/12/24 05:07:10;;;;;;;0.03;0.00;;;17.50;85.20;;;;;;4895246;27;45377;-52
2023/12/24 05:12:52;;;;;;;0.05;0.00;;;17.50;85.20;;;;;;4905513;27;46406;-52
2023/12/24 05:18:41;;;;;;;0.10;0.10;;;17.50;85.10;;;;;;4888241;27;45362;-52
2023/12/24 05:21:20;;;;;;;0.30;0.10;;;17.50;84.90;;;;;;4906648;27;45374;-52
2023/12/24 05:23:47;;;;;;;0.00;0.00;;;17.50;85.00;;;;;;4900430;27;46113;-52
2023/12/24 05:26:38;;;;;;;0.05;0.05;;;17.50;84.80;;;;;;4921970;27;45485;-51
2023/12/24 05:29:05;;;;;;;0.00;0.00;;;17.50;85.00;;;;;;4906515;27;45294;-52
2023/12/24 05:32:06;;;;;;;0.05;0.05;;;17.50;84.90;;;;;;4919897;27;45265;-52
2023/12/24 05:34:46;;;;;;;0.10;0.10;;;17.50;84.90;;;;;;4918895;27;45382;-52
2023/12/24 05:37:26;;;;;;;0.00;0.00;;;17.60;85.20;;;;;;4897565;27;45267;-52
2023/12/24 05:39:53;;;;;;;0.00;0.00;;;17.50;84.90;;;;;;4911373;27;45491;-52
2023/12/24 05:42:21;;;;;;;0.25;0.10;;;17.50;84.70;;;;;;4919509;27;45485;-52
2023/12/24 05:44:48;;;;;;;0.30;0.08;;;17.50;84.60;;;;;;4903796;27;46502;-52
2023/12/24 05:47:25;;;;;;;0.08;0.08;;;17.50;85.70;;;;;;4921580;27;45311;-53
2023/12/24 05:49:52;;;;;;;0.00;0.00;;;17.50;84.70;;;;;;4913374;27;45538;-52
2023/12/24 05:52:37;;;;;;;0.55;0.10;;;17.40;84.50;;;;;;4908616;27;45164;-53
2023/12/24 05:55:20;;;;;;;0.20;0.10;;;17.40;84.40;;;;;;4901003;27;47519;-53
2023/12/24 05:58:12;;;;;;;0.10;0.10;;;17.40;84.40;;;;;;4915196;27;45539;-53
2023/12/24 06:00:39;;;;;;;0.00;0.00;;;17.40;84.50;;;;;;4916969;27;45330;-53
2023/12/24 06:03:22;;;;;;;0.50;0.10;;;17.50;84.50;;;;;;4898530;27;45602;-52
2023/12/24 06:05:49;;;;;;;0.08;0.08;;;17.50;84.60;;;;;;4901363;27;47185;-52
2023/12/24 06:08:18;;;;;;;0.10;0.10;;;17.50;84.70;;;;;;4908515;27;45688;-52
2023/12/24 06:11:24;;;;;;;0.80;0.08;;;17.50;84.90;;;;;;4915124;27;45232;-53
2023/12/24 06:13:52;;;;;;;0.20;0.10;;;17.50;84.90;;;;;;4901798;27;45514;-53
2023/12/24 06:17:00;;;;;;;0.03;0.00;;;17.50;85.00;;;;;;4910402;27;47527;-53
2023/12/24 06:19:30;;;;;;;0.05;0.05;;;17.50;85.00;;;;;;4909169;27;45689;-53
2023/12/24 06:22:21;;;;;;;0.00;0.00;;;17.50;85.00;;;;;;4918626;27;45346;-52
2023/12/24 06:24:55;;;;;;;0.00;0.00;;;17.60;85.10;;;;;;4890288;27;45309;-53
2023/12/24 06:27:23;;;;;;;0.00;0.00;;;17.60;85.10;;;;;;4909975;27;47139;-53
2023/12/24 06:29:49;;;;;;;0.00;0.00;;;17.60;85.10;;;;;;4914080;27;45407;-53
2023/12/24 06:32:31;;;;;;;0.10;0.05;;;17.60;85.20;;;;;;4911698;27;45173;-53
2023/12/24 06:34:59;;;;;;;0.00;0.00;;;17.50;85.30;;;;;;4931175;27;45400;-53
2023/12/24 06:37:26;;;;;;;0.00;0.00;;;17.60;85.40;;;;;;4888320;27;46287;-53
2023/12/24 06:39:55;;;;;;;0.10;0.10;;;17.60;85.40;;;;;;4905641;27;45168;-53
2023/12/24 06:45:39;;;;;;;0.10;0.10;;;17.60;85.40;;;;;;4885497;27;45508;-53
2023/12/24 06:48:07;;;;;;;0.10;0.10;;;17.60;85.30;;;;;;4909948;27;45394;-53
2023/12/24 06:50:34;;;;;;;0.00;0.00;;;17.60;85.50;;;;;;4901163;27;45812;-53
2023/12/24 06:53:02;;;;;;;0.25;0.08;;;17.60;85.50;;;;;;4920355;27;45122;-53
2023/12/24 06:55:46;;;;;;;0.57;0.00;;;17.60;85.50;;;;;;4908947;27;45620;-53
2023/12/24 06:58:13;;;;;;;1.10;0.00;;;17.50;85.60;;;;;;4886709;27;46292;-53
2023/12/24 07:01:07;;;;;;;0.00;0.00;;;17.50;85.60;;;;;;4913378;27;45748;-52
2023/12/24 07:03:48;;;;;;;0.10;0.10;;;17.50;85.70;;;;;;4902050;27;45819;-52
2023/12/24 07:06:14;;;;;;;0.00;0.00;;;17.50;85.60;;;;;;4918222;27;45397;-53
2023/12/24 07:08:42;;;;;;;0.10;0.10;;;17.50;85.70;;;;;;4909880;27;45441;-53
2023/12/24 07:14:22;;;;;;;0.13;0.00;;;17.50;85.70;;;;;;4904823;27;45374;-52
2023/12/24 07:17:08;;;;;;;0.00;0.00;;;17.50;85.70;;;;;;4909984;27;45360;-53
2023/12/24 07:19:45;;;;;;;0.00;0.00;;;17.50;85.70;;;;;;4900078;27;46358;-53
2023/12/24 07:22:16;;;;;;;0.05;0.05;;;17.60;85.60;;;;;;4903556;27;45252;-52
2023/12/24 07:25:02;;;;;;;0.00;0.00;;;17.60;85.70;;;;;;4908218;27;45513;-52
2023/12/24 07:27:32;;;;;;;0.10;0.00;;;17.60;85.80;;;;;;4894582;27;45378;-52
2023/12/24 07:30:00;;;;;;;0.00;0.00;;;17.50;85.90;;;;;;4913032;27;46101;-53
2023/12/24 07:32:50;;;;;;;0.00;0.00;;;17.50;86.00;;;;;;4902013;27;45703;-52
2023/12/24 07:35:20;;;;;;;0.10;0.08;;;17.50;87.00;;;;;;4933720;27;45399;-52
2023/12/24 07:37:58;;;;;;;0.00;0.00;;;17.60;87.00;;;;;;4920728;27;46053;-52
2023/12/24 07:40:34;;;;;;;0.30;0.10;;;17.70;86.80;;;;;;4879952;27;46144;-52
2023/12/24 07:43:15;;;;;;;0.30;0.10;;;17.70;86.60;;;;;;4932246;27;45254;-52
2023/12/24 07:45:44;;;;;;;0.43;0.10;;;17.80;86.60;;;;;;4898838;27;45688;-53
2023/12/24 07:48:10;;;;;;;0.32;0.10;;;17.70;86.30;;;;;;4915510;27;45389;-53
2023/12/24 07:50:58;;;;;;;0.55;0.00;;;17.70;86.10;;;;;;4916254;27;44973;-52
2023/12/24 07:53:25;;;;;;;0.10;0.10;;;17.80;86.10;;;;;;4918000;27;45387;-53
2023/12/24 07:55:52;;;;;;;0.00;0.00;;;17.80;86.00;;;;;;4915408;27;45536;-53
2023/12/24 07:58:20;;;;;;;0.00;0.00;;;17.80;86.00;;;;;;4903786;27;45495;-53
2023/12/24 08:01:14;;;;;;;0.73;0.20;;;17.80;85.90;;;;;;4920713;27;46535;-52
2023/12/24 08:03:41;;;;;;;0.00;0.00;;;17.80;85.90;;;;;;4913545;27;45248;-53
2023/12/24 08:06:28;;;;;;;0.00;0.00;;;17.80;85.70;;;;;;4912527;27;44997;-52
2023/12/24 08:09:04;;;;;;;0.08;0.08;;;17.80;85.60;;;;;;4936985;27;45184;-52
2023/12/24 08:11:31;;;;;;;0.20;0.10;;;17.80;85.50;;;;;;4925173;27;46990;-53
2023/12/24 08:14:29;;;;;;;0.30;0.10;;;17.80;85.60;;;;;;4920375;27;45493;-52
2023/12/24 08:17:15;;;;;;;0.10;0.10;;;17.70;85.60;;;;;;4910592;27;45395;-53
2023/12/24 08:19:41;;;;;;;0.45;0.15;;;17.70;85.60;;;;;;4933154;27;45161;-52
2023/12/24 08:22:20;;;;;;;0.30;0.30;;;17.70;85.40;;;;;;4914702;27;45444;-52
2023/12/24 08:25:15;;;;;;;0.30;0.10;;;17.70;85.40;;;;;;4899370;27;45639;-52
2023/12/24 08:27:51;;;;;;;0.32;0.00;;;17.70;85.30;;;;;;4920729;27;45478;-52
2023/12/24 08:30:24;;;;;;;0.05;0.05;;;17.80;85.40;;;;;;4897340;27;45342;-53
2023/12/24 08:33:09;;;;;;;0.08;0.05;;;17.80;85.30;;;;;;4924071;27;48233;-52
2023/12/24 08:35:39;;;;;;;0.10;0.00;;;17.70;85.20;;;;;;4908661;27;45164;-52
2023/12/24 08:38:34;;;;;;;0.50;0.10;;;17.80;85.20;;;;;;4913404;27;45455;-52
2023/12/24 08:41:23;;;;;;;2.53;0.10;;;17.80;85.20;;;;;;4923218;27;45417;-52
2023/12/24 08:44:21;;;;;;;0.30;0.13;;;17.80;85.30;;;;;;4920334;27;45839;-52
2023/12/24 08:46:59;;;;;;;0.10;0.10;;;17.80;85.40;;;;;;4895100;27;45127;-52
2023/12/24 08:52:10;;;;;;;0.00;0.00;;;17.80;85.30;;;;;;4892087;27;45381;-53
2023/12/24 08:55:09;;;;;;;0.20;0.10;;;17.80;85.30;;;;;;4913547;27;46930;-52
2023/12/24 08:57:42;;;;;;;0.10;0.00;;;17.80;85.50;;;;;;4912078;27;45700;-53
2023/12/24 09:00:24;;;;;;;0.10;0.00;;;17.80;85.50;;;;;;4905181;27;45258;-53
2023/12/24 09:03:19;;;;;;;0.43;0.10;;;17.80;85.50;;;;;;4937753;27;45437;-52
2023/12/24 09:06:04;;;;;;;1.20;0.15;;;17.80;85.50;;;;;;4913737;27;46194;-52
2023/12/24 09:08:30;;;;;;;0.40;0.10;;;17.70;85.60;;;;;;4917446;27;45532;-52
2023/12/24 09:11:07;;;;;;;0.05;0.03;;;17.70;85.90;;;;;;4915997;27;45256;-52
2023/12/24 09:13:51;;;;;;;0.20;0.10;;;17.70;86.10;;;;;;4911136;27;45285;-52
2023/12/24 09:16:18;;;;;;;0.05;0.00;;;17.70;86.20;;;;;;4913267;27;47285;-53
2023/12/24 09:18:48;;;;;;;0.10;0.10;;;17.60;86.20;;;;;;4904553;27;45701;-53
2023/12/24 09:21:39;;;;;;;0.10;0.05;;;17.60;86.30;;;;;;4911694;27;45592;-53
2023/12/24 09:24:42;;;;;;;3.35;0.17;;;17.60;86.30;;;;;;4923601;27;45390;-52
2023/12/24 09:27:41;;;;;;;0.00;0.00;;;17.70;86.90;;;;;;4906364;27;45944;-52
2023/12/24 09:30:12;;;;;;;1.75;0.13;;;17.70;86.60;;;;;;4917318;27;45230;-52
2023/12/24 09:32:43;;;;;;;0.40;0.10;;;17.60;86.50;;;;;;4907756;27;45166;-53
2023/12/24 09:35:11;;;;;;;0.10;0.00;;;17.60;86.60;;;;;;4909042;27;45825;-52
2023/12/24 09:37:38;;;;;;;0.22;0.10;;;17.60;86.60;;;;;;4908210;27;46086;-52
2023/12/24 09:40:21;;;;;;;0.28;0.10;;;17.60;86.80;;;;;;4905604;27;45367;-52
2023/12/24 09:42:47;;;;;;;0.15;0.15;;;17.50;86.80;;;;;;4917377;27;45315;-53
2023/12/24 09:45:35;;;;;;;0.47;0.05;;;17.60;86.80;;;;;;4911801;27;45438;-53
2023/12/24 09:48:04;;;;;;;0.20;0.10;;;17.60;86.70;;;;;;4899629;27;47238;-53
2023/12/24 09:50:46;;;;;;;0.17;0.10;;;17.60;86.60;;;;;;4900062;27;45591;-52
2023/12/24 09:53:27;;;;;;;0.10;0.10;;;17.60;86.70;;;;;;4916007;27;45661;-53
2023/12/24 09:56:19;;;;;;;0.30;0.10;;;17.60;86.80;;;;;;4929356;27;45561;-52
2023/12/24 09:59:05;;;;;;;0.17;0.10;;;17.60;86.60;;;;;;4878700;27;46553;-52
2023/12/24 10:01:42;;;;;;;0.32;0.10;;;17.50;86.40;;;;;;4908864;27;45455;-53
2023/12/24 10:04:13;;;;;;;0.15;0.15;;;17.50;86.30;;;;;;4909104;27;45712;-52
2023/12/24 10:07:13;;;;;;;1.95;0.10;;;17.50;86.30;;;;;;4916700;27;45522;-52
2023/12/24 10:09:55;;;;;;;0.80;0.10;;;17.50;86.60;;;;;;4923121;27;46394;-52
2023/12/24 10:12:48;;;;;;;4.28;0.60;;;17.50;86.40;;;;;;4918723;27;45460;-52
2023/12/24 10:15:38;;;;;;;1.27;0.30;;;17.60;86.50;;;;;;4911435;27;45513;-53
2023/12/24 10:18:30;;;;;;;0.10;0.10;;;17.60;86.20;;;;;;4895941;27;45468;-53
2023/12/24 10:21:19;;;;;;;0.10;0.10;;;17.60;86.00;;;;;;4907277;27;45599;-52
2023/12/24 10:24:00;;;;;;;0.05;0.05;;;17.60;85.80;;;;;;4919119;27;45099;-53
2023/12/24 10:26:44;;;;;;;0.25;0.20;;;17.60;85.60;;;;;;4917659;27;45420;-53
2023/12/24 10:32:09;;;;;;;0.50;0.10;;;17.70;85.70;;;;;;4886971;27;46221;-53
2023/12/24 10:34:57;;;;;;;0.13;0.10;;;17.70;85.60;;;;;;4916722;27;45376;-52
2023/12/24 10:37:43;;;;;;;0.55;0.10;;;17.70;86.30;;;;;;4909882;27;45489;-53
2023/12/24 10:40:25;;;;;;;0.82;0.20;;;17.70;86.30;;;;;;4900691;27;45360;-52
2023/12/24 10:42:52;;;;;;;0.10;0.10;;;17.60;86.10;;;;;;4902493;27;45864;-53
2023/12/24 10:45:18;;;;;;;0.35;0.00;;;17.70;86.00;;;;;;4910657;27;45348;-53
2023/12/24 10:47:45;;;;;;;1.45;0.15;;;17.70;85.80;;;;;;4912578;27;45294;-52
2023/12/24 10:50:13;;;;;;;0.20;0.20;;;17.70;86.00;;;;;;4914893;27;44906;-53
2023/12/24 10:52:41;;;;;;;0.17;0.10;;;17.80;86.00;;;;;;4906921;27;45987;-53
2023/12/24 10:55:24;;;;;;;0.17;0.10;;;17.80;85.80;;;;;;4892374;27;45912;-53
2023/12/24 10:58:22;;;;;;;0.15;0.10;;;17.80;85.90;;;;;;4898794;27;45243;-52
2023/12/24 11:01:18;;;;;;;0.40;0.13;;;17.80;85.70;;;;;;4957485;27;45371;-52
2023/12/24 11:03:47;;;;;;;0.22;0.05;;;17.80;85.80;;;;;;4898643;27;46257;-53
2023/12/24 11:06:46;;;;;;;1.23;0.20;;;17.80;85.60;;;;;;4920929;27;45454;-52
2023/12/24 11:09:48;;;;;;;0.10;0.10;;;17.80;85.70;;;;;;4903201;27;45553;-53
2023/12/24 11:12:42;;;;;;;0.30;0.17;;;17.80;86.60;;;;;;4914657;27;45605;-52
2023/12/24 11:15:10;;;;;;;0.98;0.10;;;17.80;85.60;;;;;;4885250;27;47121;-52
2023/12/24 11:18:16;;;;;;;0.13;0.10;;;17.80;86.10;;;;;;4912484;27;45636;-52
2023/12/24 11:21:19;;;;;;;0.20;0.03;;;17.80;86.30;;;;;;4917799;27;45705;-53
2023/12/24 11:24:22;;;;;;;0.38;0.20;;;17.80;86.20;;;;;;4907678;27;45387;-53
2023/12/24 11:27:14;;;;;;;1.95;0.20;;;17.80;86.40;;;;;;4915785;27;47154;-52
2023/12/24 11:30:25;;;;;;;0.38;0.20;;;17.80;86.40;;;;;;4896521;27;45383;-52
2023/12/24 11:32:53;;;;;;;0.70;0.20;;;17.80;86.30;;;;;;4902385;27;45288;-52
2023/12/24 11:35:53;;;;;;;0.30;0.10;;;17.80;86.20;;;;;;4894638;27;45457;-52
2023/12/24 11:38:41;;;;;;;0.45;0.15;;;17.80;86.60;;;;;;4905788;27;45233;-53
2023/12/24 11:41:10;;;;;;;0.60;0.28;;;17.80;86.70;;;;;;4902328;27;45245;-52
2023/12/24 11:44:02;;;;;;;0.22;0.20;;;17.80;86.50;;;;;;4899718;27;45500;-52
2023/12/24 11:46:46;;;;;;;1.02;0.22;;;17.80;86.40;;;;;;4929584;27;45188;-52
2023/12/24 11:49:19;;;;;;;0.90;0.30;;;17.80;86.40;;;;;;4919711;27;46358;-52
2023/12/24 11:51:48;;;;;;;0.20;0.13;;;17.70;86.30;;;;;;4918409;27;45224;-53
2023/12/24 11:54:26;;;;;;;1.77;0.40;;;17.70;86.30;;;;;;4888848;27;46392;-53
2023/12/24 11:56:53;;;;;;;0.85;0.40;;;17.70;86.50;;;;;;4899641;27;45050;-53
2023/12/24 11:59:32;;;;;;;0.90;0.38;;;17.70;86.40;;;;;;4912963;27;46425;-52
2023/12/24 12:02:16;;;;;;;0.30;0.20;;;17.70;86.20;;;;;;4908470;27;45696;-52
2023/12/24 12:05:16;;;;;;;2.78;0.20;;;17.70;86.20;;;;;;4893766;27;45328;-52
2023/12/24 12:07:53;;;;;;;2.03;0.35;;;17.70;86.30;;;;;;4896611;27;45066;-52
2023/12/24 12:10:24;;;;;;;0.10;0.10;;;17.70;86.30;;;;;;4908708;27;45404;-52
2023/12/24 12:12:52;;;;;;;1.00;0.20;;;17.70;86.50;;;;;;4902133;27;45268;-52
2023/12/24 12:18:18;;;;;;;0.90;0.30;;;17.70;86.60;;;;;;4920720;27;45714;-52
2023/12/24 12:21:03;;;;;;;0.40;0.20;;;17.70;87.00;;;;;;4928211;27;46305;-53
2023/12/24 12:23:29;;;;;;;0.13;0.10;;;17.70;86.90;;;;;;4921085;27;45246;-53
2023/12/24 12:26:13;;;;;;;1.80;0.40;;;17.70;87.00;;;;;;4925810;27;45758;-53
2023/12/24 12:28:45;;;;;;;0.25;0.20;;;17.70;87.10;;;;;;4912870;27;45480;-52
2023/12/24 12:31:30;;;;;;;0.20;0.15;;;17.70;87.10;;;;;;4910248;27;45927;-53
2023/12/24 12:34:25;;;;;;;0.43;0.20;;;17.60;87.30;;;;;;4919342;27;45582;-52
2023/12/24 12:37:03;;;;;;;0.35;0.15;;;17.60;87.40;;;;;;4912849;27;45282;-53
2023/12/24 12:39:49;;;;;;;0.47;0.20;;;17.60;87.40;;;;;;4903295;27;45466;-52
2023/12/24 12:42:17;;;;;;;0.30;0.10;;;17.60;87.40;;;;;;4930484;27;45384;-53
2023/12/24 12:45:05;;;;;;;0.30;0.13;;;17.60;87.50;;;;;;4925083;27;45428;-52
2023/12/24 12:47:56;;;;;;;0.80;0.13;;;17.60;87.40;;;;;;4925786;27;45559;-52
2023/12/24 12:50:38;;;;;;;0.10;0.10;;;17.60;87.50;;;;;;4899098;27;45600;-52
2023/12/24 12:53:27;;;;;;;0.15;0.15;;;17.70;87.60;;;;;;4921444;27;46809;-53
2023/12/24 12:59:34;;;;;;;0.55;0.20;;;17.70;87.70;;;;;;4884745;27;45674;-52
2023/12/24 13:02:22;;;;;;;0.10;0.10;;;17.70;87.50;;;;;;4906587;27;46549;-52
2023/12/24 13:04:49;;;;;;;0.20;0.20;;;17.70;87.70;;;;;;4901326;27;46054;-52
2023/12/24 13:07:56;;;;;;;0.40;0.20;;;17.60;87.70;;;;;;4911032;27;45429;-52
2023/12/24 13:10:35;;;;;;;0.10;0.10;;;17.60;88.20;;;;;;4938472;27;45496;-52
2023/12/24 13:13:35;;;;;;;0.10;0.10;;;17.60;88.10;;;;;;4916360;27;45590;-52
2023/12/24 13:16:28;;;;;;;0.08;0.08;;;17.60;88.10;;;;;;4929692;27;46156;-52
2023/12/24 13:19:18;;;;;;;0.22;0.00;;;17.60;88.30;;;;;;4937312;27;45272;-52
2023/12/24 13:22:13;;;;;;;0.73;0.30;;;17.60;88.40;;;;;;4951101;27;45477;-52
2023/12/24 13:25:03;;;;;;;0.50;0.10;;;17.60;88.40;;;;;;4900178;27;44982;-52
2023/12/24 13:27:32;;;;;;;0.20;0.20;;;17.60;88.40;;;;;;4913084;27;46220;-53
2023/12/24 13:30:11;;;;;;;0.45;0.10;;;17.60;88.40;;;;;;4907622;27;45053;-53
2023/12/24 13:33:05;;;;;;;0.20;0.20;;;17.60;88.60;;;;;;4944865;27;45154;-52
2023/12/24 13:35:43;;;;;;;0.30;0.10;;;17.60;88.50;;;;;;4899883;27;45376;-52
2023/12/24 13:38:14;;;;;;;0.22;0.17;;;17.60;88.80;;;;;;4915261;27;46970;-52
2023/12/24 13:40:58;;;;;;;0.70;0.10;;;17.60;88.70;;;;;;4901435;27;45378;-52
2023/12/24 13:47:16;;;;;;;0.43;0.20;;;17.60;88.90;;;;;;4907606;27;45251;-52
2023/12/24 13:49:46;;;;;;;0.10;0.10;;;17.60;89.10;;;;;;4911349;27;45927;-53
2023/12/24 13:52:15;;;;;;;0.80;0.30;;;17.60;89.10;;;;;;4905307;27;45377;-53
2023/12/24 13:54:44;;;;;;;0.20;0.20;;;17.60;89.10;;;;;;4911607;27;45448;-52
2023/12/24 13:57:39;;;;;;;0.15;0.15;;;17.60;88.90;;;;;;4905504;27;45671;-52
2023/12/24 14:00:33;;;;;;;0.45;0.10;;;17.60;88.90;;;;;;4924358;27;46179;-52
2023/12/24 14:03:03;;;;;;;1.83;0.32;;;17.60;88.80;;;;;;4929017;27;45409;-53
2023/12/24 14:05:30;;;;;;;0.20;0.20;;;17.70;88.90;;;;;;4908821;27;45499;-53
2023/12/24 14:08:15;;;;;;;1.50;0.88;;;17.70;89.10;;;;;;4922433;27;45479;-53
2023/12/24 14:11:09;;;;;;;2.03;0.50;;;17.70;89.50;;;;;;4943295;27;47028;-53
2023/12/24 14:13:50;;;;;;;0.40;0.20;;;17.80;89.40;;;;;;4930530;27;45530;-53
2023/12/24 14:17:25;;;;;;;1.00;0.47;;;17.80;88.50;;;;;;4920269;27;45556;-53
2023/12/24 14:22:34;;;;;;;5.43;0.30;;;17.90;88.00;;;;;;4901405;27;46185;-53
2023/12/24 14:25:04;;;;;;;1.45;0.22;;;17.90;87.80;;;;;;4917777;27;45192;-53
2023/12/24 14:27:46;;;;;;;0.30;0.22;;;17.90;87.70;;;;;;4901371;27;45290;-53
2023/12/24 14:30:34;;;;;;;0.63;0.30;;;17.80;87.70;;;;;;4915179;27;45660;-53
2023/12/24 14:33:10;;;;;;;0.55;0.20;;;17.90;87.80;;;;;;4903624;27;45647;-53